aviador You're here:

UKHH Decoded Metar

KHARKOV in UKRAINE
Report Time2017-08-22 08:30:00
UTC Time2017-08-22 09:00:07
Flight Rules vfr VFR
Wind120° at 17 kt
W.Decomp.*RWY 07: 12.6 kt HW 11.4 kt RCW
W.Rank120° ranks 4
Current wind is above 120° avg. (7.6)
Visibility9999 m
Phenomena:N/A
Clouds:N/A
Expected CloudBase > 11,200 ft AGL from Temp-Dew spread
CeilingNone
Temp30°C (ISA +16)
Dew Point02°C (17% RH)
Heat Index28.2°C
AAT22.3°C
QNH1007 hPa
Density Alt2,644 ft
Elevation509 ft
Report Wrong Elevation
Raw Report
UKHH 220830Z 12009MPS CAVOK 30/02 Q1007 R07/0///66 TEMPO
12009G16MPS=

Extra information for UKHH:More info

Metar Taf Metar & Taf Last 4 Metars F.Rules Stats Wind Profile Meteogram Temp Stats Airport Information Weather charts Add Link Nearby VenuesMetar ALERT Operation Metar Decoded Social comments